Genesis Vigilant — WDG9352 — position and weather

sailwx.info

Track history (hours):
 
Tides and Currents Weather Stations Pressure Air Temp Water Temp Dewpoint Dewpoint Depression Visibility Wind Speed Wind Dir Waves Ship Positions

Genesis Vigilant

Owner: Genesis Marine, LLC, Houston, TX. More information available from US FCC via Universal Licensing System and Coast Guard Vessel Documentation Center.

Last reported at 2017-Sep-18 14:34 UTC. Time now 2017-Nov-20 17:16 UTC.
Position N 17°56' W 066°46'.
Warning: this ship's position is months out of date.

Length 35 m; draft 5.1 m.

Type: Towing. MMSI: 338531000.

Date/timePositionNaut miles runAvg speedWind from/ knotsBaromVisibWave heightAir tempDewpointWater temp
2017-Sep-18 14:34N 17°56' W 066°46'1 8.1
2017-Sep-18 14:28N 17°57' W 066°46'1 0.1
2017-Sep-18 00:11N 17°58' W 066°46'2 6.9
2017-Sep-17 23:55N 17°56' W 066°45'3 8.5
2017-Sep-17 23:30N 17°55' W 066°42'4 8.6
2017-Sep-17 23:00N 17°53' W 066°38'4 8.6
2017-Sep-17 22:30N 17°51' W 066°34'4 8.9
2017-Sep-17 22:00N 17°51' W 066°29'4 8.8
2017-Sep-17 21:30N 17°52' W 066°25'4 8.7
2017-Sep-17 21:00N 17°54' W 066°21'4 8.2
2017-Sep-17 20:30N 17°56' W 066°17'3 6.1
2017-Sep-17 20:00N 17°56' W 066°14'1 1.7
2017-Sep-17 19:30N 17°57' W 066°14'0 0.0
2017-Sep-17 18:57N 17°57' W 066°14'0 0.0
2017-Sep-17 18:30N 17°57' W 066°14'0 0.0
2017-Sep-17 17:57N 17°57' W 066°14'0 0.0
2017-Sep-17 17:30N 17°57' W 066°14'0 0.0
2017-Sep-17 17:00N 17°57' W 066°14'0 0.0
2017-Sep-17 16:30N 17°57' W 066°14'0 0.0
2017-Sep-17 16:00N 17°57' W 066°14'0 0.0
2017-Sep-17 15:30N 17°57' W 066°14'0 0.0
2017-Sep-17 14:57N 17°57' W 066°14'0 0.0
2017-Sep-17 14:30N 17°57' W 066°14'0 0.0
2017-Sep-17 14:00N 17°57' W 066°14'0 0.0
2017-Sep-17 13:27N 17°57' W 066°14'0 0.0
2017-Sep-17 12:57N 17°57' W 066°14'0 0.0
2017-Sep-17 12:27N 17°57' W 066°14'0 0.0
2017-Sep-17 12:00N 17°57' W 066°14'0 0.0
2017-Sep-17 11:30N 17°57' W 066°14'0 0.0
2017-Sep-17 11:00N 17°57' W 066°14'0 0.0
2017-Sep-17 10:30N 17°57' W 066°14'0 0.0
2017-Sep-17 10:00N 17°57' W 066°14'0 0.0
2017-Sep-17 09:30N 17°57' W 066°14'0 0.0
2017-Sep-17 09:00N 17°57' W 066°14'0 0.0
2017-Sep-17 08:30N 17°57' W 066°14'0 0.0
2017-Sep-17 07:57N 17°57' W 066°14'0 0.0
2017-Sep-17 07:30N 17°57' W 066°14'0 0.0
2017-Sep-17 07:00N 17°57' W 066°14'0 0.0
2017-Sep-17 06:27N 17°57' W 066°14'0 0.0
2017-Sep-17 05:57N 17°57' W 066°14'0 0.0
2017-Sep-17 05:30N 17°57' W 066°14'0 0.0
2017-Sep-17 04:57N 17°57' W 066°14'0 0.0
2017-Sep-17 04:27N 17°57' W 066°14'0 0.0
2017-Sep-17 04:00N 17°57' W 066°14'0 0.0
2017-Sep-17 03:30N 17°57' W 066°14'0 0.0
2017-Sep-17 03:00N 17°57' W 066°14'0 0.0
2017-Sep-17 02:27N 17°57' W 066°14'0 0.0
2017-Sep-17 01:57N 17°57' W 066°14'0 0.0
2017-Sep-17 01:27N 17°57' W 066°14'0 0.0
2017-Sep-17 01:00N 17°57' W 066°14'0 0.0
2017-Sep-17 00:30N 17°57' W 066°14'0 0.0
2017-Sep-17 00:00N 17°57' W 066°14'0 0.0
2017-Sep-16 23:27N 17°57' W 066°14'0 0.0
2017-Sep-16 22:57N 17°57' W 066°14'0 0.0
2017-Sep-16 22:30N 17°57' W 066°14'0 0.0
2017-Sep-16 22:00N 17°57' W 066°14'0 0.0
2017-Sep-16 21:30N 17°57' W 066°14'0 0.0
2017-Sep-16 21:00N 17°57' W 066°14'0 0.0
2017-Sep-16 20:30N 17°57' W 066°14'0 0.1
2017-Sep-16 20:00N 17°57' W 066°14'0 0.9
2017-Sep-16 19:30N 17°56' W 066°13'1 2.8
2017-Sep-16 18:59N 17°55' W 066°14'2 3.3
2017-Sep-16 18:30N 17°56' W 066°16'2 3.6
2017-Sep-16 18:00N 17°55' W 066°18'3 5.5
2017-Sep-16 17:30N 17°54' W 066°21'3 5.4
2017-Sep-16 17:00N 17°53' W 066°23'3 5.2
2017-Sep-16 16:30N 17°52' W 066°25'3 5.0
2017-Sep-16 16:00N 17°51' W 066°28'2 4.8
2017-Sep-16 15:30N 17°51' W 066°31'3 5.1
2017-Sep-16 15:00N 17°51' W 066°33'3 5.2
2017-Sep-16 14:30N 17°52' W 066°36'3 5.2
2017-Sep-16 14:00N 17°52' W 066°39'3 5.7
2017-Sep-16 13:30N 17°54' W 066°41'3 5.8
2017-Sep-16 13:00N 17°55' W 066°44'3 5.4
2017-Sep-16 12:30N 17°57' W 066°46'2 4.2
2017-Sep-16 12:00N 17°59' W 066°46'1 0.0
2017-Sep-15 15:17N 17°60' W 066°46'1 2.3
2017-Sep-15 15:00N 17°59' W 066°46'2 3.1
2017-Sep-15 14:30N 17°58' W 066°46'4 7.5
2017-Sep-15 14:00N 17°55' W 066°43'4 8.5
2017-Sep-15 13:30N 17°53' W 066°40'5 9.0
2017-Sep-15 13:00N 17°51' W 066°36'4 8.8
2017-Sep-15 12:30N 17°50' W 066°31'4 8.8
2017-Sep-15 12:00N 17°52' W 066°27'4 8.9
2017-Sep-15 11:30N 17°53' W 066°22'4 8.7
2017-Sep-15 11:00N 17°55' W 066°18'4 7.5
2017-Sep-15 10:30N 17°56' W 066°14'1 2.6
2017-Sep-15 10:00N 17°56' W 066°13'0 0.0
2017-Sep-15 09:30N 17°56' W 066°13'0 0.0
2017-Sep-15 09:00N 17°56' W 066°13'0 0.1
2017-Sep-15 08:30N 17°56' W 066°13'0 0.1
2017-Sep-15 08:00N 17°56' W 066°13'0 0.0
2017-Sep-15 07:30N 17°56' W 066°13'0 0.0
2017-Sep-15 07:00N 17°56' W 066°13'0 0.1
2017-Sep-15 06:30N 17°56' W 066°13'0 0.0
2017-Sep-15 06:00N 17°56' W 066°13'0 0.1
2017-Sep-15 05:27N 17°56' W 066°13'0 0.0
2017-Sep-15 05:00N 17°56' W 066°13'0 0.1
2017-Sep-15 04:30N 17°56' W 066°13'0 0.1
2017-Sep-15 04:00N 17°56' W 066°13'0 0.0
2017-Sep-15 03:30N 17°56' W 066°13'0 0.0
2017-Sep-15 03:00N 17°56' W 066°13'0 0.1
2017-Sep-15 02:30N 17°56' W 066°13'0 0.2
2017-Sep-15 02:00N 17°56' W 066°13'0 0.0
2017-Sep-15 01:30N 17°56' W 066°13'0 0.0
2017-Sep-15 01:00N 17°56' W 066°13'0 0.2
2017-Sep-15 00:27N 17°56' W 066°13'0 0.0
2017-Sep-15 00:01N 17°56' W 066°13'1 1.1
2017-Sep-14 23:29N 17°57' W 066°14'0 0.0
2017-Sep-14 22:59N 17°57' W 066°14'0 0.0
2017-Sep-14 22:29N 17°57' W 066°14'0 0.0
2017-Sep-14 21:56N 17°57' W 066°14'0 0.0
2017-Sep-14 21:29N 17°57' W 066°14'0 0.0
2017-Sep-14 20:56N 17°57' W 066°14'0 0.0
2017-Sep-14 20:26N 17°57' W 066°14'0 0.0
2017-Sep-14 19:59N 17°57' W 066°14'0 0.0
2017-Sep-14 19:29N 17°57' W 066°14'0 0.0
2017-Sep-14 18:59N 17°57' W 066°14'0 0.0
2017-Sep-14 18:29N 17°57' W 066°14'0 0.0
2017-Sep-14 17:56N 17°57' W 066°14'0 0.0
2017-Sep-14 17:23N 17°57' W 066°14'0 0.0
2017-Sep-14 16:59N 17°57' W 066°14'0 0.0
2017-Sep-14 16:29N 17°57' W 066°14'0 0.0
2017-Sep-14 15:59N 17°57' W 066°14'0 0.0
2017-Sep-14 15:29N 17°57' W 066°14'0 0.0
2017-Sep-14 14:56N 17°57' W 066°14'0 0.0
2017-Sep-14 14:29N 17°57' W 066°14'0 0.0
2017-Sep-14 13:59N 17°57' W 066°14'0 0.0
2017-Sep-14 13:29N 17°57' W 066°14'0 0.0
2017-Sep-14 12:59N 17°57' W 066°14'0 0.0
2017-Sep-14 12:29N 17°57' W 066°14'0 0.0
2017-Sep-14 11:59N 17°57' W 066°14'0 0.0
2017-Sep-14 11:20N 17°57' W 066°14'0 0.0
2017-Sep-14 10:59N 17°57' W 066°14'0 0.0
2017-Sep-14 10:29N 17°57' W 066°14'0 0.0
2017-Sep-14 09:56N 17°57' W 066°14'0 0.0
2017-Sep-14 09:20N 17°57' W 066°14'0 0.0
2017-Sep-14 08:59N 17°57' W 066°14'0 0.0
2017-Sep-14 08:26N 17°57' W 066°14'0 0.0
2017-Sep-14 07:56N 17°57' W 066°14'0 0.0
2017-Sep-14 07:26N 17°57' W 066°14'0 0.0
2017-Sep-14 06:56N 17°57' W 066°14'0 0.0
2017-Sep-14 06:20N 17°57' W 066°14'0 0.0
2017-Sep-14 05:50N 17°57' W 066°14'0 0.0
2017-Sep-14 05:08N 17°57' W 066°14'0 0.0
2017-Sep-14 04:56N 17°57' W 066°14'0 0.0
2017-Sep-14 04:23N 17°57' W 066°14'0 0.0
2017-Sep-14 03:56N 17°57' W 066°14'0 0.0
2017-Sep-14 03:23N 17°57' W 066°14'0 0.0
2017-Sep-14 02:59N 17°57' W 066°14'0 0.0
2017-Sep-14 02:29N 17°57' W 066°14'0 0.0
2017-Sep-14 01:59N 17°57' W 066°14'0 0.0
2017-Sep-14 01:26N 17°57' W 066°14'0 0.0
2017-Sep-14 00:59N 17°57' W 066°14'0 0.0
2017-Sep-14 00:29N 17°57' W 066°14'0 0.0
2017-Sep-13 23:59N 17°57' W 066°14'0 0.0
2017-Sep-13 23:29N 17°57' W 066°14'0 0.0
2017-Sep-13 22:59N 17°57' W 066°14'0 0.0
2017-Sep-13 22:29N 17°57' W 066°14'0 0.0
2017-Sep-13 22:00N 17°57' W 066°14'0 0.1
2017-Sep-13 21:30N 17°57' W 066°14'1 1.1
2017-Sep-13 21:00N 17°56' W 066°14'2 3.0
2017-Sep-13 20:30N 17°56' W 066°15'2 3.6
2017-Sep-13 20:00N 17°56' W 066°17'3 5.1
2017-Sep-13 19:30N 17°55' W 066°19'3 6.2
2017-Sep-13 19:00N 17°53' W 066°22'3 6.2
2017-Sep-13 18:30N 17°52' W 066°25'3 6.2
2017-Sep-13 18:00N 17°51' W 066°28'3 6.3
2017-Sep-13 17:30N 17°50' W 066°31'3 6.3
2017-Sep-13 17:00N 17°50' W 066°35'3 6.2
2017-Sep-13 16:30N 17°52' W 066°38'3 6.5
2017-Sep-13 16:00N 17°53' W 066°41'3 6.6
2017-Sep-13 15:30N 17°55' W 066°44'3 6.3
2017-Sep-13 15:00N 17°57' W 066°46'2 0.1
2017-Sep-12 18:51N 17°59' W 066°46'1 3.7
2017-Sep-12 18:29N 17°58' W 066°46'3 6.9
2017-Sep-12 18:01N 17°56' W 066°44'4 8.6
2017-Sep-12 17:31N 17°54' W 066°39'4 8.6
2017-Sep-12 17:00N 17°52' W 066°36'4 8.9
2017-Sep-12 16:30N 17°51' W 066°31'5 9.3
2017-Sep-12 16:01N 17°52' W 066°26'5 9.3
2017-Sep-12 15:30N 17°53' W 066°22'4 9.0
2017-Sep-12 15:01N 17°55' W 066°17'3 6.5
2017-Sep-12 14:30N 17°56' W 066°14'1 2.4
2017-Sep-12 14:00N 17°57' W 066°14'0 0.0
2017-Sep-12 13:30N 17°57' W 066°14'0 0.0
2017-Sep-12 13:01N 17°57' W 066°14'0 0.0
2017-Sep-12 12:30N 17°57' W 066°14'0 0.0
2017-Sep-12 12:00N 17°57' W 066°14'0 0.0
2017-Sep-12 11:30N 17°57' W 066°14'0 0.0
2017-Sep-12 11:01N 17°57' W 066°14'0 0.0
2017-Sep-12 10:30N 17°57' W 066°14'0 0.0
2017-Sep-12 10:01N 17°57' W 066°14'0 0.0
2017-Sep-12 09:30N 17°57' W 066°14'0 0.0
2017-Sep-12 09:01N 17°57' W 066°14'0 0.0
2017-Sep-12 08:31N 17°57' W 066°14'0 0.0
2017-Sep-12 08:00N 17°57' W 066°14'0 0.0
2017-Sep-12 07:30N 17°57' W 066°14'0 0.0
2017-Sep-12 07:01N 17°57' W 066°14'0 0.0
2017-Sep-12 06:31N 17°57' W 066°14'0 0.0
2017-Sep-12 06:01N 17°57' W 066°14'0 0.0
2017-Sep-12 05:31N 17°57' W 066°14'0 0.0
2017-Sep-12 05:01N 17°57' W 066°14'0 0.0
2017-Sep-12 04:30N 17°57' W 066°14'0 0.0
2017-Sep-12 04:00N 17°57' W 066°14'0 0.0
2017-Sep-12 03:31N 17°57' W 066°14'0 0.0
2017-Sep-12 03:01N 17°57' W 066°14'0 0.0
2017-Sep-12 02:30N 17°57' W 066°14'0 0.0
2017-Sep-12 02:01N 17°57' W 066°14'0 0.0
2017-Sep-12 01:31N 17°57' W 066°14'0 0.0
2017-Sep-12 01:01N 17°57' W 066°14'0 0.0
2017-Sep-12 00:31N 17°57' W 066°14'0 0.0
2017-Sep-12 00:01N 17°57' W 066°14'0 0.0
2017-Sep-11 23:30N 17°57' W 066°14'0 0.0
2017-Sep-11 23:00N 17°57' W 066°14'0 0.0
2017-Sep-11 22:31N 17°57' W 066°14'0 0.0
2017-Sep-11 22:00N 17°57' W 066°14'0 0.0
2017-Sep-11 21:31N 17°57' W 066°14'0 0.0
2017-Sep-11 21:00N 17°57' W 066°14'0 0.0
2017-Sep-11 20:30N 17°57' W 066°14'0 0.0
2017-Sep-11 20:00N 17°57' W 066°14'0 0.0
2017-Sep-11 19:30N 17°57' W 066°14'0 0.0
2017-Sep-11 19:00N 17°57' W 066°14'0 0.0
2017-Sep-11 18:30N 17°57' W 066°14'0 0.0
2017-Sep-11 18:01N 17°57' W 066°14'0 0.0
2017-Sep-11 17:30N 17°57' W 066°14'0 0.0
2017-Sep-11 17:01N 17°57' W 066°14'0 0.0
2017-Sep-11 16:30N 17°57' W 066°14'0 0.0
2017-Sep-11 16:01N 17°57' W 066°14'0 0.0
2017-Sep-11 15:30N 17°57' W 066°14'0 0.0
2017-Sep-11 15:00N 17°57' W 066°14'0 0.0
2017-Sep-11 14:31N 17°57' W 066°14'0 0.0
2017-Sep-11 14:00N 17°57' W 066°14'0 0.0
2017-Sep-11 13:30N 17°57' W 066°14'0 0.0
2017-Sep-11 13:01N 17°57' W 066°14'0 0.0
2017-Sep-11 12:31N 17°57' W 066°14'0 0.0
2017-Sep-11 12:01N 17°57' W 066°14'0 0.6
2017-Sep-11 11:30N 17°57' W 066°13'1 2.6
2017-Sep-11 11:01N 17°56' W 066°14'2 3.3
2017-Sep-11 10:31N 17°56' W 066°16'2 3.8
2017-Sep-11 10:00N 17°55' W 066°18'3 5.3
2017-Sep-11 09:30N 17°54' W 066°20'3 5.4
2017-Sep-11 09:01N 17°53' W 066°23'3 5.2
2017-Sep-11 08:30N 17°52' W 066°25'3 5.2
2017-Sep-11 08:01N 17°51' W 066°28'3 5.2
2017-Sep-11 07:31N 17°50' W 066°30'3 5.2
2017-Sep-11 07:00N 17°50' W 066°33'3 5.1
2017-Sep-11 06:30N 17°51' W 066°36'3 5.6
2017-Sep-11 06:00N 17°52' W 066°38'3 5.8
2017-Sep-11 05:30N 17°54' W 066°41'3 5.9
2017-Sep-11 05:00N 17°55' W 066°43'3 5.4
2017-Sep-11 04:31N 17°57' W 066°46'2 4.2
2017-Sep-11 04:01N 17°59' W 066°46'1 0.4
2017-Sep-11 02:01N 17°60' W 066°46'0 0.0
2017-Sep-10 15:57N 17°60' W 066°46'0 0.0
2017-Sep-10 15:26N 17°60' W 066°46'0 0.0
2017-Sep-10 15:00N 17°60' W 066°46'0 0.0
2017-Sep-10 13:33N 17°60' W 066°46'0 0.0
2017-Sep-10 13:22N 17°60' W 066°46'0 0.0
2017-Sep-10 13:00N 17°60' W 066°46'0 0.0
2017-Sep-10 12:30N 17°60' W 066°46'0 0.0
2017-Sep-10 11:52N 17°60' W 066°46'0 0.0
2017-Sep-10 11:30N 17°60' W 066°46'0 0.0
2017-Sep-10 11:00N 17°60' W 066°46'0 0.0
2017-Sep-10 10:25N 17°60' W 066°46'0 0.0
2017-Sep-10 10:00N 17°60' W 066°46'0 0.0
2017-Sep-10 09:30N 17°60' W 066°46'0 0.0
2017-Sep-10 09:00N 17°60' W 066°46'0 0.0
2017-Sep-10 08:29N 17°60' W 066°46'0 0.0
2017-Sep-10 08:00N 17°60' W 066°46'0 0.0
2017-Sep-10 07:30N 17°60' W 066°46'0 0.0
2017-Sep-10 06:59N 17°60' W 066°46'0 0.0
2017-Sep-10 06:30N 17°60' W 066°46'0 0.0
2017-Sep-10 06:00N 17°60' W 066°46'0 0.0
2017-Sep-10 05:30N 17°60' W 066°46'0 0.0
2017-Sep-10 05:00N 17°60' W 066°46'0 0.0
2017-Sep-10 04:30N 17°60' W 066°46'0 0.0
2017-Sep-10 03:58N 17°60' W 066°46'0 0.0
2017-Sep-10 03:28N 17°60' W 066°46'0 0.0
2017-Sep-10 02:55N 17°60' W 066°46'0 0.0
2017-Sep-10 02:26N 17°60' W 066°46'0 0.0
2017-Sep-10 02:00N 17°60' W 066°46'0 0.0
2017-Sep-10 01:30N 17°60' W 066°46'0 0.0
2017-Sep-10 00:34N 17°60' W 066°46'0 0.0
2017-Sep-10 00:30N 17°60' W 066°46'0 0.0
2017-Sep-09 22:44N 17°60' W 066°46'0 0.0
2017-Sep-09 22:30N 17°60' W 066°46'0 0.0
2017-Sep-09 22:00N 17°60' W 066°46'0 0.0
2017-Sep-09 21:30N 17°60' W 066°46'0 0.0
2017-Sep-09 21:00N 17°60' W 066°46'0 0.0
2017-Sep-09 20:30N 17°60' W 066°46'0 0.0
2017-Sep-09 18:24N 17°60' W 066°46'0 0.0
2017-Sep-09 15:41N 17°60' W 066°46'0 0.0
2017-Sep-09 14:56N 17°60' W 066°46'0 0.0
2017-Sep-09 14:30N 17°60' W 066°46'0 0.0
2017-Sep-09 14:00N 17°60' W 066°46'0 0.0
2017-Sep-09 13:30N 17°60' W 066°46'0 0.0
2017-Sep-09 13:00N 17°60' W 066°46'0 0.0
2017-Sep-09 09:56N 17°60' W 066°46'0 0.0
2017-Sep-09 09:30N 17°60' W 066°46'0 0.0
2017-Sep-09 09:00N 17°60' W 066°46'  
Track history (hours):
 
Tides and Currents Weather Stations Pressure Air Temp Water Temp Dewpoint Dewpoint Depression Visibility Wind Speed Wind Dir Waves Ship Positions

Genesis Vigilant

Owner: Genesis Marine, LLC, Houston, TX. More information available from US FCC via Universal Licensing System and Coast Guard Vessel Documentation Center.

Last reported at 2017-Sep-18 14:34 UTC. Time now 2017-Nov-20 17:16 UTC.
Position N 17°56' W 066°46'.
Warning: this ship's position is months out of date.

Length 35 m; draft 5.1 m.

Type: Towing. MMSI: 338531000.

Date/timePositionNaut miles runAvg speedWind from/ knotsBaromVisibWave heightAir tempDewpointWater temp
2017-Sep-18 14:34N 17°56' W 066°46'1 8.1
2017-Sep-18 14:28N 17°57' W 066°46'1 0.1
2017-Sep-18 00:11N 17°58' W 066°46'2 6.9
2017-Sep-17 23:55N 17°56' W 066°45'3 8.5
2017-Sep-17 23:30N 17°55' W 066°42'4 8.6
2017-Sep-17 23:00N 17°53' W 066°38'4 8.6
2017-Sep-17 22:30N 17°51' W 066°34'4 8.9
2017-Sep-17 22:00N 17°51' W 066°29'4 8.8
2017-Sep-17 21:30N 17°52' W 066°25'4 8.7
2017-Sep-17 21:00N 17°54' W 066°21'4 8.2
2017-Sep-17 20:30N 17°56' W 066°17'3 6.1
2017-Sep-17 20:00N 17°56' W 066°14'1 1.7
2017-Sep-17 19:30N 17°57' W 066°14'0 0.0
2017-Sep-17 18:57N 17°57' W 066°14'0 0.0
2017-Sep-17 18:30N 17°57' W 066°14'0 0.0
2017-Sep-17 17:57N 17°57' W 066°14'0 0.0
2017-Sep-17 17:30N 17°57' W 066°14'0 0.0
2017-Sep-17 17:00N 17°57' W 066°14'0 0.0
2017-Sep-17 16:30N 17°57' W 066°14'0 0.0
2017-Sep-17 16:00N 17°57' W 066°14'0 0.0
2017-Sep-17 15:30N 17°57' W 066°14'0 0.0
2017-Sep-17 14:57N 17°57' W 066°14'0 0.0
2017-Sep-17 14:30N 17°57' W 066°14'0 0.0
2017-Sep-17 14:00N 17°57' W 066°14'0 0.0
2017-Sep-17 13:27N 17°57' W 066°14'0 0.0
2017-Sep-17 12:57N 17°57' W 066°14'0 0.0
2017-Sep-17 12:27N 17°57' W 066°14'0 0.0
2017-Sep-17 12:00N 17°57' W 066°14'0 0.0
2017-Sep-17 11:30N 17°57' W 066°14'0 0.0
2017-Sep-17 11:00N 17°57' W 066°14'0 0.0
2017-Sep-17 10:30N 17°57' W 066°14'0 0.0
2017-Sep-17 10:00N 17°57' W 066°14'0 0.0
2017-Sep-17 09:30N 17°57' W 066°14'0 0.0
2017-Sep-17 09:00N 17°57' W 066°14'0 0.0
2017-Sep-17 08:30N 17°57' W 066°14'0 0.0
2017-Sep-17 07:57N 17°57' W 066°14'0 0.0
2017-Sep-17 07:30N 17°57' W 066°14'0 0.0
2017-Sep-17 07:00N 17°57' W 066°14'0 0.0
2017-Sep-17 06:27N 17°57' W 066°14'0 0.0
2017-Sep-17 05:57N 17°57' W 066°14'0 0.0
2017-Sep-17 05:30N 17°57' W 066°14'0 0.0
2017-Sep-17 04:57N 17°57' W 066°14'0 0.0
2017-Sep-17 04:27N 17°57' W 066°14'0 0.0
2017-Sep-17 04:00N 17°57' W 066°14'0 0.0
2017-Sep-17 03:30N 17°57' W 066°14'0 0.0
2017-Sep-17 03:00N 17°57' W 066°14'0 0.0
2017-Sep-17 02:27N 17°57' W 066°14'0 0.0
2017-Sep-17 01:57N 17°57' W 066°14'0 0.0
2017-Sep-17 01:27N 17°57' W 066°14'0 0.0
2017-Sep-17 01:00N 17°57' W 066°14'0 0.0
2017-Sep-17 00:30N 17°57' W 066°14'0 0.0
2017-Sep-17 00:00N 17°57' W 066°14'0 0.0
2017-Sep-16 23:27N 17°57' W 066°14'0 0.0
2017-Sep-16 22:57N 17°57' W 066°14'0 0.0
2017-Sep-16 22:30N 17°57' W 066°14'0 0.0
2017-Sep-16 22:00N 17°57' W 066°14'0 0.0
2017-Sep-16 21:30N 17°57' W 066°14'0 0.0
2017-Sep-16 21:00N 17°57' W 066°14'0 0.0
2017-Sep-16 20:30N 17°57' W 066°14'0 0.1
2017-Sep-16 20:00N 17°57' W 066°14'0 0.9
2017-Sep-16 19:30N 17°56' W 066°13'1 2.8
2017-Sep-16 18:59N 17°55' W 066°14'2 3.3
2017-Sep-16 18:30N 17°56' W 066°16'2 3.6
2017-Sep-16 18:00N 17°55' W 066°18'3 5.5
2017-Sep-16 17:30N 17°54' W 066°21'3 5.4
2017-Sep-16 17:00N 17°53' W 066°23'3 5.2
2017-Sep-16 16:30N 17°52' W 066°25'3 5.0
2017-Sep-16 16:00N 17°51' W 066°28'2 4.8
2017-Sep-16 15:30N 17°51' W 066°31'3 5.1
2017-Sep-16 15:00N 17°51' W 066°33'3 5.2
2017-Sep-16 14:30N 17°52' W 066°36'3 5.2
2017-Sep-16 14:00N 17°52' W 066°39'3 5.7
2017-Sep-16 13:30N 17°54' W 066°41'3 5.8
2017-Sep-16 13:00N 17°55' W 066°44'3 5.4
2017-Sep-16 12:30N 17°57' W 066°46'2 4.2
2017-Sep-16 12:00N 17°59' W 066°46'1 0.0
2017-Sep-15 15:17N 17°60' W 066°46'1 2.3
2017-Sep-15 15:00N 17°59' W 066°46'2 3.1
2017-Sep-15 14:30N 17°58' W 066°46'4 7.5
2017-Sep-15 14:00N 17°55' W 066°43'4 8.5
2017-Sep-15 13:30N 17°53' W 066°40'5 9.0
2017-Sep-15 13:00N 17°51' W 066°36'4 8.8
2017-Sep-15 12:30N 17°50' W 066°31'4 8.8
2017-Sep-15 12:00N 17°52' W 066°27'4 8.9
2017-Sep-15 11:30N 17°53' W 066°22'4 8.7
2017-Sep-15 11:00N 17°55' W 066°18'4 7.5
2017-Sep-15 10:30N 17°56' W 066°14'1 2.6
2017-Sep-15 10:00N 17°56' W 066°13'0 0.0
2017-Sep-15 09:30N 17°56' W 066°13'0 0.0
2017-Sep-15 09:00N 17°56' W 066°13'0 0.1
2017-Sep-15 08:30N 17°56' W 066°13'0 0.1
2017-Sep-15 08:00N 17°56' W 066°13'0 0.0
2017-Sep-15 07:30N 17°56' W 066°13'0 0.0
2017-Sep-15 07:00N 17°56' W 066°13'0 0.1
2017-Sep-15 06:30N 17°56' W 066°13'0 0.0
2017-Sep-15 06:00N 17°56' W 066°13'0 0.1
2017-Sep-15 05:27N 17°56' W 066°13'0 0.0
2017-Sep-15 05:00N 17°56' W 066°13'0 0.1
2017-Sep-15 04:30N 17°56' W 066°13'0 0.1
2017-Sep-15 04:00N 17°56' W 066°13'0 0.0
2017-Sep-15 03:30N 17°56' W 066°13'0 0.0
2017-Sep-15 03:00N 17°56' W 066°13'0 0.1
2017-Sep-15 02:30N 17°56' W 066°13'0 0.2
2017-Sep-15 02:00N 17°56' W 066°13'0 0.0
2017-Sep-15 01:30N 17°56' W 066°13'0 0.0
2017-Sep-15 01:00N 17°56' W 066°13'0 0.2
2017-Sep-15 00:27N 17°56' W 066°13'0 0.0
2017-Sep-15 00:01N 17°56' W 066°13'1 1.1
2017-Sep-14 23:29N 17°57' W 066°14'0 0.0
2017-Sep-14 22:59N 17°57' W 066°14'0 0.0
2017-Sep-14 22:29N 17°57' W 066°14'0 0.0
2017-Sep-14 21:56N 17°57' W 066°14'0 0.0
2017-Sep-14 21:29N 17°57' W 066°14'0 0.0
2017-Sep-14 20:56N 17°57' W 066°14'0 0.0
2017-Sep-14 20:26N 17°57' W 066°14'0 0.0
2017-Sep-14 19:59N 17°57' W 066°14'0 0.0
2017-Sep-14 19:29N 17°57' W 066°14'0 0.0
2017-Sep-14 18:59N 17°57' W 066°14'0 0.0
2017-Sep-14 18:29N 17°57' W 066°14'0 0.0
2017-Sep-14 17:56N 17°57' W 066°14'0 0.0
2017-Sep-14 17:23N 17°57' W 066°14'0 0.0
2017-Sep-14 16:59N 17°57' W 066°14'0 0.0
2017-Sep-14 16:29N 17°57' W 066°14'0 0.0
2017-Sep-14 15:59N 17°57' W 066°14'0 0.0
2017-Sep-14 15:29N 17°57' W 066°14'0 0.0
2017-Sep-14 14:56N 17°57' W 066°14'0 0.0
2017-Sep-14 14:29N 17°57' W 066°14'0 0.0
2017-Sep-14 13:59N 17°57' W 066°14'0 0.0
2017-Sep-14 13:29N 17°57' W 066°14'0 0.0
2017-Sep-14 12:59N 17°57' W 066°14'0 0.0
2017-Sep-14 12:29N 17°57' W 066°14'0 0.0
2017-Sep-14 11:59N 17°57' W 066°14'0 0.0
2017-Sep-14 11:20N 17°57' W 066°14'0 0.0
2017-Sep-14 10:59N 17°57' W 066°14'0 0.0
2017-Sep-14 10:29N 17°57' W 066°14'0 0.0
2017-Sep-14 09:56N 17°57' W 066°14'0 0.0
2017-Sep-14 09:20N 17°57' W 066°14'0 0.0
2017-Sep-14 08:59N 17°57' W 066°14'0 0.0
2017-Sep-14 08:26N 17°57' W 066°14'0 0.0
2017-Sep-14 07:56N 17°57' W 066°14'0 0.0
2017-Sep-14 07:26N 17°57' W 066°14'0 0.0
2017-Sep-14 06:56N 17°57' W 066°14'0 0.0
2017-Sep-14 06:20N 17°57' W 066°14'0 0.0
2017-Sep-14 05:50N 17°57' W 066°14'0 0.0
2017-Sep-14 05:08N 17°57' W 066°14'0 0.0
2017-Sep-14 04:56N 17°57' W 066°14'0 0.0
2017-Sep-14 04:23N 17°57' W 066°14'0 0.0
2017-Sep-14 03:56N 17°57' W 066°14'0 0.0
2017-Sep-14 03:23N 17°57' W 066°14'0 0.0
2017-Sep-14 02:59N 17°57' W 066°14'0 0.0
2017-Sep-14 02:29N 17°57' W 066°14'0 0.0
2017-Sep-14 01:59N 17°57' W 066°14'0 0.0
2017-Sep-14 01:26N 17°57' W 066°14'0 0.0
2017-Sep-14 00:59N 17°57' W 066°14'0 0.0
2017-Sep-14 00:29N 17°57' W 066°14'0 0.0
2017-Sep-13 23:59N 17°57' W 066°14'0 0.0
2017-Sep-13 23:29N 17°57' W 066°14'0 0.0
2017-Sep-13 22:59N 17°57' W 066°14'0 0.0
2017-Sep-13 22:29N 17°57' W 066°14'0 0.0
2017-Sep-13 22:00N 17°57' W 066°14'0 0.1
2017-Sep-13 21:30N 17°57' W 066°14'1 1.1
2017-Sep-13 21:00N 17°56' W 066°14'2 3.0
2017-Sep-13 20:30N 17°56' W 066°15'2 3.6
2017-Sep-13 20:00N 17°56' W 066°17'3 5.1
2017-Sep-13 19:30N 17°55' W 066°19'3 6.2
2017-Sep-13 19:00N 17°53' W 066°22'3 6.2
2017-Sep-13 18:30N 17°52' W 066°25'3 6.2
2017-Sep-13 18:00N 17°51' W 066°28'3 6.3
2017-Sep-13 17:30N 17°50' W 066°31'3 6.3
2017-Sep-13 17:00N 17°50' W 066°35'3 6.2
2017-Sep-13 16:30N 17°52' W 066°38'3 6.5
2017-Sep-13 16:00N 17°53' W 066°41'3 6.6
2017-Sep-13 15:30N 17°55' W 066°44'3 6.3
2017-Sep-13 15:00N 17°57' W 066°46'2 0.1
2017-Sep-12 18:51N 17°59' W 066°46'1 3.7
2017-Sep-12 18:29N 17°58' W 066°46'3 6.9
2017-Sep-12 18:01N 17°56' W 066°44'4 8.6
2017-Sep-12 17:31N 17°54' W 066°39'4 8.6
2017-Sep-12 17:00N 17°52' W 066°36'4 8.9
2017-Sep-12 16:30N 17°51' W 066°31'5 9.3
2017-Sep-12 16:01N 17°52' W 066°26'5 9.3
2017-Sep-12 15:30N 17°53' W 066°22'4 9.0
2017-Sep-12 15:01N 17°55' W 066°17'3 6.5
2017-Sep-12 14:30N 17°56' W 066°14'1 2.4
2017-Sep-12 14:00N 17°57' W 066°14'0 0.0
2017-Sep-12 13:30N 17°57' W 066°14'0 0.0
2017-Sep-12 13:01N 17°57' W 066°14'0 0.0
2017-Sep-12 12:30N 17°57' W 066°14'0 0.0
2017-Sep-12 12:00N 17°57' W 066°14'0 0.0
2017-Sep-12 11:30N 17°57' W 066°14'0 0.0
2017-Sep-12 11:01N 17°57' W 066°14'0 0.0
2017-Sep-12 10:30N 17°57' W 066°14'0 0.0
2017-Sep-12 10:01N 17°57' W 066°14'0 0.0
2017-Sep-12 09:30N 17°57' W 066°14'0 0.0
2017-Sep-12 09:01N 17°57' W 066°14'0 0.0
2017-Sep-12 08:31N 17°57' W 066°14'0 0.0
2017-Sep-12 08:00N 17°57' W 066°14'0 0.0
2017-Sep-12 07:30N 17°57' W 066°14'0 0.0
2017-Sep-12 07:01N 17°57' W 066°14'0 0.0
2017-Sep-12 06:31N 17°57' W 066°14'0 0.0
2017-Sep-12 06:01N 17°57' W 066°14'0 0.0
2017-Sep-12 05:31N 17°57' W 066°14'0 0.0
2017-Sep-12 05:01N 17°57' W 066°14'0 0.0
2017-Sep-12 04:30N 17°57' W 066°14'0 0.0
2017-Sep-12 04:00N 17°57' W 066°14'0 0.0
2017-Sep-12 03:31N 17°57' W 066°14'0 0.0
2017-Sep-12 03:01N 17°57' W 066°14'0 0.0
2017-Sep-12 02:30N 17°57' W 066°14'0 0.0
2017-Sep-12 02:01N 17°57' W 066°14'0 0.0
2017-Sep-12 01:31N 17°57' W 066°14'0 0.0
2017-Sep-12 01:01N 17°57' W 066°14'0 0.0
2017-Sep-12 00:31N 17°57' W 066°14'0 0.0
2017-Sep-12 00:01N 17°57' W 066°14'0 0.0
2017-Sep-11 23:30N 17°57' W 066°14'0 0.0
2017-Sep-11 23:00N 17°57' W 066°14'0 0.0
2017-Sep-11 22:31N 17°57' W 066°14'0 0.0
2017-Sep-11 22:00N 17°57' W 066°14'0 0.0
2017-Sep-11 21:31N 17°57' W 066°14'0 0.0
2017-Sep-11 21:00N 17°57' W 066°14'0 0.0
2017-Sep-11 20:30N 17°57' W 066°14'0 0.0
2017-Sep-11 20:00N 17°57' W 066°14'0 0.0
2017-Sep-11 19:30N 17°57' W 066°14'0 0.0
2017-Sep-11 19:00N 17°57' W 066°14'0 0.0
2017-Sep-11 18:30N 17°57' W 066°14'0 0.0
2017-Sep-11 18:01N 17°57' W 066°14'0 0.0
2017-Sep-11 17:30N 17°57' W 066°14'0 0.0
2017-Sep-11 17:01N 17°57' W 066°14'0 0.0
2017-Sep-11 16:30N 17°57' W 066°14'0 0.0
2017-Sep-11 16:01N 17°57' W 066°14'0 0.0
2017-Sep-11 15:30N 17°57' W 066°14'0 0.0
2017-Sep-11 15:00N 17°57' W 066°14'0 0.0
2017-Sep-11 14:31N 17°57' W 066°14'0 0.0
2017-Sep-11 14:00N 17°57' W 066°14'0 0.0
2017-Sep-11 13:30N 17°57' W 066°14'0 0.0
2017-Sep-11 13:01N 17°57' W 066°14'0 0.0
2017-Sep-11 12:31N 17°57' W 066°14'0 0.0
2017-Sep-11 12:01N 17°57' W 066°14'0 0.6
2017-Sep-11 11:30N 17°57' W 066°13'1 2.6
2017-Sep-11 11:01N 17°56' W 066°14'2 3.3
2017-Sep-11 10:31N 17°56' W 066°16'2 3.8
2017-Sep-11 10:00N 17°55' W 066°18'3 5.3
2017-Sep-11 09:30N 17°54' W 066°20'3 5.4
2017-Sep-11 09:01N 17°53' W 066°23'3 5.2
2017-Sep-11 08:30N 17°52' W 066°25'3 5.2
2017-Sep-11 08:01N 17°51' W 066°28'3 5.2
2017-Sep-11 07:31N 17°50' W 066°30'3 5.2
2017-Sep-11 07:00N 17°50' W 066°33'3 5.1
2017-Sep-11 06:30N 17°51' W 066°36'3 5.6
2017-Sep-11 06:00N 17°52' W 066°38'3 5.8
2017-Sep-11 05:30N 17°54' W 066°41'3 5.9
2017-Sep-11 05:00N 17°55' W 066°43'3 5.4
2017-Sep-11 04:31N 17°57' W 066°46'2 4.2
2017-Sep-11 04:01N 17°59' W 066°46'1 0.4
2017-Sep-11 02:01N 17°60' W 066°46'0 0.0
2017-Sep-10 15:57N 17°60' W 066°46'0 0.0
2017-Sep-10 15:26N 17°60' W 066°46'0 0.0
2017-Sep-10 15:00N 17°60' W 066°46'0 0.0
2017-Sep-10 13:33N 17°60' W 066°46'0 0.0
2017-Sep-10 13:22N 17°60' W 066°46'0 0.0
2017-Sep-10 13:00N 17°60' W 066°46'0 0.0
2017-Sep-10 12:30N 17°60' W 066°46'0 0.0
2017-Sep-10 11:52N 17°60' W 066°46'0 0.0
2017-Sep-10 11:30N 17°60' W 066°46'0 0.0
2017-Sep-10 11:00N 17°60' W 066°46'0 0.0
2017-Sep-10 10:25N 17°60' W 066°46'0 0.0
2017-Sep-10 10:00N 17°60' W 066°46'0 0.0
2017-Sep-10 09:30N 17°60' W 066°46'0 0.0
2017-Sep-10 09:00N 17°60' W 066°46'0 0.0
2017-Sep-10 08:29N 17°60' W 066°46'0 0.0
2017-Sep-10 08:00N 17°60' W 066°46'0 0.0
2017-Sep-10 07:30N 17°60' W 066°46'0 0.0
2017-Sep-10 06:59N 17°60' W 066°46'0 0.0
2017-Sep-10 06:30N 17°60' W 066°46'0 0.0
2017-Sep-10 06:00N 17°60' W 066°46'0 0.0
2017-Sep-10 05:30N 17°60' W 066°46'0 0.0
2017-Sep-10 05:00N 17°60' W 066°46'0 0.0
2017-Sep-10 04:30N 17°60' W 066°46'0 0.0
2017-Sep-10 03:58N 17°60' W 066°46'0 0.0
2017-Sep-10 03:28N 17°60' W 066°46'0 0.0
2017-Sep-10 02:55N 17°60' W 066°46'0 0.0
2017-Sep-10 02:26N 17°60' W 066°46'0 0.0
2017-Sep-10 02:00N 17°60' W 066°46'0 0.0
2017-Sep-10 01:30N 17°60' W 066°46'0 0.0
2017-Sep-10 00:34N 17°60' W 066°46'0 0.0
2017-Sep-10 00:30N 17°60' W 066°46'0 0.0
2017-Sep-09 22:44N 17°60' W 066°46'0 0.0
2017-Sep-09 22:30N 17°60' W 066°46'0 0.0
2017-Sep-09 22:00N 17°60' W 066°46'0 0.0
2017-Sep-09 21:30N 17°60' W 066°46'0 0.0
2017-Sep-09 21:00N 17°60' W 066°46'0 0.0
2017-Sep-09 20:30N 17°60' W 066°46'0 0.0
2017-Sep-09 18:24N 17°60' W 066°46'0 0.0
2017-Sep-09 15:41N 17°60' W 066°46'0 0.0
2017-Sep-09 14:56N 17°60' W 066°46'0 0.0
2017-Sep-09 14:30N 17°60' W 066°46'0 0.0
2017-Sep-09 14:00N 17°60' W 066°46'0 0.0
2017-Sep-09 13:30N 17°60' W 066°46'0 0.0
2017-Sep-09 13:00N 17°60' W 066°46'0 0.0
2017-Sep-09 09:56N 17°60' W 066°46'0 0.0
2017-Sep-09 09:30N 17°60' W 066°46'0 0.0
2017-Sep-09 09:00N 17°60' W 066°46'  

Dump ship's entire track history